T'ao-yuan, Taiwan
Current Conditions -  °F | °C
As of 5:00 AM on Sunday 23 Nov 2014 (Local Time) from RCTP Reporting Station
Few Clouds Few Clouds  
Wind Chill: 73°   Ceiling: Unl
Heat Index: 73°   Visibility: 6mi
Dew Point: 63°   Wind: 5mph
Humidity: 69%   Direction: 110°ESE
Pressure: 30"   Gusts: NA
Location:  25°N, 121.3°E
Report Text: RCTP 222100Z 11004KT 050V170 9999 FEW020 23/17 Q1016 NOSIGRMK A3001
Loading
Personal Weather Stations






























Interactive Weather Map New forecast layout! Learn more

10-Day Weather Forecast

Advertisements
Track Severe Weather on mobile